Time;durP1;ratioP1;P1;durP2;ratioP2;P2;SDS_P1;SDS_P2;PMS_P1;PMS_P2;Temp;Humidity;BMP_temperature;BMP_pressure;BME280_temperature;BME280_humidity;BME280_pressure;Samples;Min_cycle;Max_cycle;Signal;HPM_P1;HPM_P2
2022/06/13 00:02:08;;;;;;;10.98;3.40;;;14.40;99.90;;;;;;5086997;28;20066;-59
2022/06/13 00:04:36;;;;;;;7.47;2.80;;;14.20;99.90;;;;;;5084827;28;20040;-57
2022/06/13 00:07:02;;;;;;;5.57;2.45;;;14.30;99.90;;;;;;5084876;28;20020;-57
2022/06/13 00:09:28;;;;;;;6.18;2.95;;;14.40;99.90;;;;;;5090668;28;20111;-58
2022/06/13 00:11:54;;;;;;;6.75;2.92;;;14.40;99.90;;;;;;5084783;28;20094;-57
2022/06/13 00:14:20;;;;;;;8.75;3.20;;;14.40;99.90;;;;;;5090918;28;20081;-58
2022/06/13 00:16:45;;;;;;;7.72;2.85;;;14.20;99.90;;;;;;5090807;28;20032;-58
2022/06/13 00:19:11;;;;;;;7.25;2.63;;;14.40;99.90;;;;;;5081079;28;20024;-58
2022/06/13 00:21:38;;;;;;;10.23;3.55;;;14.10;99.90;;;;;;5082718;28;20016;-57
2022/06/13 00:24:07;;;;;;;7.25;3.17;;;14.10;99.90;;;;;;5092064;28;20028;-58
2022/06/13 00:26:34;;;;;;;7.18;2.75;;;14.00;99.90;;;;;;5091736;28;20537;-59
2022/06/13 00:29:00;;;;;;;8.18;3.25;;;13.20;99.90;;;;;;5089499;28;20028;-58
2022/06/13 00:31:26;;;;;;;9.63;3.47;;;14.00;99.90;;;;;;5090372;28;20066;-58
2022/06/13 00:33:52;;;;;;;11.50;3.10;;;13.80;99.90;;;;;;5091079;28;20458;-58
2022/06/13 00:36:21;;;;;;;8.63;3.15;;;13.80;99.90;;;;;;5090294;28;20049;-58
2022/06/13 00:38:48;;;;;;;6.55;2.90;;;13.80;99.90;;;;;;5089657;28;20027;-57
2022/06/13 00:41:23;;;;;;;7.25;3.35;;;13.90;99.90;;;;;;5097197;28;20026;-57
2022/06/13 00:43:49;;;;;;;15.70;3.53;;;13.90;99.90;;;;;;5093109;28;20036;-58
2022/06/13 00:46:24;;;;;;;5.22;3.25;;;13.90;99.90;;;;;;5095235;28;20028;-58
2022/06/13 00:49:07;;;;;;;8.05;3.47;;;;;;;;;;5092297;28;20012;-59
2022/06/13 00:51:36;;;;;;;8.67;3.20;;;13.70;99.90;;;;;;5092059;28;20043;-58
2022/06/13 00:54:03;;;;;;;8.52;3.28;;;13.60;99.90;;;;;;5096397;28;20059;-59
2022/06/13 00:56:32;;;;;;;7.25;3.40;;;13.60;99.90;;;;;;5094542;28;20390;-58
2022/06/13 00:59:04;;;;;;;6.88;3.22;;;13.70;99.90;;;;;;5092233;28;20035;-57
2022/06/13 01:01:32;;;;;;;6.30;3.08;;;13.90;99.90;;;;;;5094880;28;20496;-57
2022/06/13 01:04:01;;;;;;;7.25;3.20;;;13.70;99.90;;;;;;5096661;28;20020;-58
2022/06/13 01:06:29;;;;;;;7.65;3.15;;;13.50;99.90;;;;;;5089622;28;20041;-58
2022/06/13 01:08:55;;;;;;;10.00;3.60;;;13.50;99.90;;;;;;5097511;28;20017;-57
2022/06/13 01:11:24;;;;;;;7.53;3.50;;;13.30;99.90;;;;;;5085786;28;20035;-57
2022/06/13 01:14:02;;;;;;;7.38;3.13;;;13.40;99.90;;;;;;5091903;28;20038;-59
2022/06/13 01:16:30;;;;;;;9.10;3.40;;;13.60;99.90;;;;;;5083386;28;20089;-58
2022/06/13 01:19:08;;;;;;;8.40;3.90;;;13.50;99.90;;;;;;5088170;28;20020;-59
2022/06/13 01:22:12;;;;;;;7.25;3.55;;;13.60;99.90;;;;;;5089106;28;20609;-57
2022/06/13 01:24:52;;;;;;;8.80;3.42;;;13.70;99.90;;;;;;5088583;28;20035;-58
2022/06/13 01:27:40;;;;;;;8.35;3.38;;;13.60;99.90;;;;;;5092065;28;20011;-58
2022/06/13 01:30:53;;;;;;;11.05;3.45;;;13.70;99.90;;;;;;5090459;28;20043;-58
2022/06/13 01:33:31;;;;;;;7.70;3.30;;;13.70;99.90;;;;;;5028499;28;20034;-58
2022/06/13 01:36:05;;;;;;;8.27;3.70;;;13.80;99.90;;;;;;5083947;28;20098;-57
2022/06/13 01:38:36;;;;;;;11.10;3.85;;;13.80;99.90;;;;;;5096446;28;20116;-57
2022/06/13 01:41:23;;;;;;;7.45;3.50;;;13.90;99.90;;;;;;5088412;28;20035;-58
2022/06/13 01:44:28;;;;;;;9.25;3.45;;;13.80;99.90;;;;;;5089398;28;20038;-57
2022/06/13 01:47:32;;;;;;;8.48;3.65;;;13.90;99.90;;;;;;5082037;28;20047;-57
2022/06/13 01:50:19;;;;;;;10.27;4.30;;;13.80;99.90;;;;;;5072185;28;20039;-58
2022/06/13 01:53:09;;;;;;;10.45;4.47;;;13.90;99.90;;;;;;5085877;28;20028;-58
2022/06/13 01:56:05;;;;;;;7.03;3.83;;;13.90;99.90;;;;;;5090919;28;20027;-58
2022/06/13 01:58:53;;;;;;;9.63;4.07;;;13.90;99.90;;;;;;5087430;28;20039;-58
2022/06/13 02:01:19;;;;;;;8.95;4.10;;;14.00;99.90;;;;;;5084427;28;20772;-57
2022/06/13 02:03:50;;;;;;;10.18;4.10;;;13.90;99.90;;;;;;5084228;28;20116;-58
2022/06/13 02:06:29;;;;;;;9.85;4.35;;;13.90;99.90;;;;;;5086669;28;20021;-58
2022/06/13 02:09:21;;;;;;;10.82;4.22;;;13.90;99.90;;;;;;5083066;28;20042;-58
2022/06/13 02:11:52;;;;;;;8.85;4.80;;;13.90;99.90;;;;;;5077548;28;20515;-58
2022/06/13 02:14:42;;;;;;;11.82;4.07;;;13.80;99.90;;;;;;5089443;28;20028;-57
2022/06/13 02:17:21;;;;;;;8.50;4.43;;;13.80;99.90;;;;;;5088475;28;20089;-57
2022/06/13 02:19:53;;;;;;;9.00;4.28;;;13.80;99.90;;;;;;5092924;28;20496;-58
2022/06/13 02:22:33;;;;;;;8.10;4.35;;;13.80;99.90;;;;;;5084319;28;20097;-58
2022/06/13 02:25:11;;;;;;;10.23;4.40;;;13.70;99.90;;;;;;5083793;28;20020;-56
2022/06/13 02:27:38;;;;;;;8.38;4.22;;;13.70;99.90;;;;;;5080662;28;20425;-57
2022/06/13 02:30:08;;;;;;;8.93;4.43;;;13.70;99.90;;;;;;5085872;28;20039;-57
2022/06/13 02:32:51;;;;;;;9.18;4.63;;;13.70;99.90;;;;;;5092687;28;20122;-57
2022/06/13 02:35:21;;;;;;;9.80;4.38;;;13.80;99.90;;;;;;5084671;28;20012;-57
2022/06/13 02:37:53;;;;;;;10.65;4.32;;;13.70;99.90;;;;;;5083902;28;20096;-59
2022/06/13 02:40:27;;;;;;;10.13;4.75;;;13.70;99.90;;;;;;5087570;28;20623;-58
2022/06/13 02:42:55;;;;;;;12.15;4.88;;;13.70;99.90;;;;;;5086642;28;20089;-57
2022/06/13 02:45:22;;;;;;;8.25;4.35;;;13.80;99.90;;;;;;5090305;28;20085;-57
2022/06/13 02:48:09;;;;;;;10.25;5.00;;;13.80;99.90;;;;;;5090296;28;20107;-58
2022/06/13 02:50:56;;;;;;;12.27;4.88;;;13.90;99.90;;;;;;5084815;28;20383;-57
2022/06/13 02:53:35;;;;;;;10.75;5.32;;;14.00;99.90;;;;;;5085547;28;20031;-57
2022/06/13 02:56:13;;;;;;;9.98;5.20;;;14.00;99.90;;;;;;5081656;28;20024;-58
2022/06/13 02:59:11;;;;;;;12.57;5.43;;;14.20;99.90;;;;;;5093280;28;20923;-57
2022/06/13 03:01:43;;;;;;;10.63;5.55;;;13.80;99.90;;;;;;5082840;28;20036;-57
2022/06/13 03:04:40;;;;;;;8.73;5.57;;;13.80;99.90;;;;;;5086738;28;20024;-56
2022/06/13 03:07:10;;;;;;;12.48;5.53;;;13.90;99.90;;;;;;5081808;28;20069;-58
2022/06/13 03:09:53;;;;;;;12.23;6.13;;;13.90;99.90;;;;;;5086885;28;20368;-57
2022/06/13 03:12:45;;;;;;;19.30;6.47;;;14.00;99.90;;;;;;5081366;28;20103;-58
2022/06/13 03:15:18;;;;;;;12.40;6.20;;;13.90;99.90;;;;;;5078223;28;20028;-57
2022/06/13 03:17:53;;;;;;;14.30;7.28;;;13.80;99.90;;;;;;5094183;28;20454;-58
2022/06/13 03:20:22;;;;;;;12.48;6.50;;;13.80;99.90;;;;;;5092635;28;20389;-58
2022/06/13 03:22:54;;;;;;;13.23;6.80;;;14.00;99.90;;;;;;5087907;28;20030;-58
2022/06/13 03:25:57;;;;;;;13.37;6.57;;;14.00;99.90;;;;;;5087115;28;20028;-57
2022/06/13 03:28:40;;;;;;;13.93;7.60;;;13.90;99.90;;;;;;5084237;28;20021;-57
2022/06/13 03:31:28;;;;;;;11.80;6.82;;;14.00;99.90;;;;;;5086297;28;20118;-58
2022/06/13 03:33:59;;;;;;;12.90;7.10;;;14.00;99.90;;;;;;5083154;28;20438;-56
2022/06/13 03:36:52;;;;;;;13.15;6.82;;;;;;;;;;5087027;28;20442;-57
2022/06/13 03:39:27;;;;;;;13.77;7.20;;;14.10;99.90;;;;;;5078755;28;20336;-56
2022/06/13 03:41:58;;;;;;;13.25;6.55;;;14.20;99.90;;;;;;5091205;28;20050;-57
2022/06/13 03:44:29;;;;;;;15.93;7.40;;;;;;;;;;5087051;28;20476;-58
2022/06/13 03:47:00;;;;;;;16.33;6.60;;;;;;;;;;5087904;28;20029;-57
2022/06/13 03:49:38;;;;;;;13.73;7.07;;;14.50;99.90;;;;;;5089206;28;20107;-57
2022/06/13 03:52:08;;;;;;;13.27;7.68;;;14.50;99.90;;;;;;5079362;28;20016;-57
2022/06/13 03:54:43;;;;;;;13.68;7.07;;;14.30;99.90;;;;;;5091481;28;20027;-58
2022/06/13 03:57:24;;;;;;;17.10;7.10;;;14.50;99.90;;;;;;5081468;28;20479;-57
2022/06/13 04:00:11;;;;;;;13.48;7.30;;;14.20;99.90;;;;;;5085014;28;20035;-57
2022/06/13 04:02:41;;;;;;;15.77;7.45;;;14.20;99.90;;;;;;5084925;28;20703;-56
2022/06/13 04:05:16;;;;;;;17.95;8.57;;;14.30;99.90;;;;;;5079559;28;20024;-58
2022/06/13 04:07:49;;;;;;;15.98;8.45;;;14.30;99.90;;;;;;5088145;28;20055;-57
2022/06/13 04:10:17;;;;;;;17.05;8.35;;;14.50;99.90;;;;;;5086577;28;20459;-56
2022/06/13 04:13:02;;;;;;;22.05;9.10;;;14.20;99.90;;;;;;5089352;28;20055;-56
2022/06/13 04:15:45;;;;;;;19.40;8.20;;;;;;;;;;5089096;28;20428;-57
2022/06/13 04:18:34;;;;;;;18.37;8.50;;;14.50;99.90;;;;;;5085177;28;20493;-56
2022/06/13 04:21:10;;;;;;;22.10;8.43;;;14.20;99.90;;;;;;5083754;28;20396;-56
2022/06/13 04:24:00;;;;;;;15.90;7.55;;;14.20;99.90;;;;;;5087563;28;20028;-56
2022/06/13 04:26:32;;;;;;;19.35;7.45;;;;;;;;;;5083975;28;20534;-56
2022/06/13 04:29:20;;;;;;;12.98;6.40;;;;;;;;;;5088387;28;20016;-57
2022/06/13 04:31:47;;;;;;;12.18;6.30;;;;;;;;;;5088687;28;20024;-57
2022/06/13 04:34:15;;;;;;;10.82;5.57;;;;;;;;;;5091130;28;20088;-57
2022/06/13 04:36:43;;;;;;;11.50;4.53;;;;;;;;;;5086524;28;20104;-57
2022/06/13 04:39:11;;;;;;;9.02;4.30;;;;;;;;;;5088333;28;20082;-55
2022/06/13 04:41:40;;;;;;;7.63;3.60;;;;;;;;;;5099698;28;20021;-57
2022/06/13 04:44:07;;;;;;;8.02;3.60;;;;;;;;;;5095781;28;20055;-56
2022/06/13 04:46:36;;;;;;;7.63;3.45;;;;;;;;;;5095262;28;20429;-57
2022/06/13 04:49:07;;;;;;;6.30;3.03;;;;;;;;;;5089574;28;20036;-56
2022/06/13 04:51:42;;;;;;;5.90;3.17;;;14.20;99.90;;;;;;5090403;28;20062;-56
2022/06/13 04:54:13;;;;;;;5.55;3.25;;;;;;;;;;5089492;28;20028;-56
2022/06/13 04:56:39;;;;;;;6.70;2.97;;;;;;;;;;5089740;28;20028;-56
2022/06/13 04:59:06;;;;;;;5.68;3.20;;;;;;;;;;5089680;28;20594;-56
2022/06/13 05:01:38;;;;;;;8.63;3.78;;;;;;;;;;5085230;28;20529;-56
2022/06/13 05:04:06;;;;;;;6.68;3.30;;;;;;;;;;5093818;28;20159;-57
2022/06/13 05:06:33;;;;;;;5.78;3.05;;;;;;;;;;5091798;28;20059;-56
2022/06/13 05:09:02;;;;;;;9.80;3.63;;;14.30;99.90;;;;;;5089241;28;20273;-56
2022/06/13 05:12:05;;;;;;;11.10;4.03;;;14.40;99.90;;;;;;5087174;28;20119;-57
2022/06/13 05:14:35;;;;;;;7.50;4.20;;;;;;;;;;5062936;28;20120;-56
2022/06/13 05:17:02;;;;;;;10.20;4.53;;;;;;;;;;5089618;28;20024;-56
2022/06/13 05:19:36;;;;;;;12.13;5.10;;;;;;;;;;5082800;28;20487;-56
2022/06/13 05:22:11;;;;;;;12.63;5.18;;;;;;;;;;5092182;28;20023;-56
2022/06/13 05:24:39;;;;;;;12.13;5.47;;;14.60;99.90;;;;;;5089349;28;20020;-56
2022/06/13 05:27:08;;;;;;;15.20;6.13;;;;;;;;;;5107574;27;20025;-57
2022/06/13 05:29:35;;;;;;;11.60;6.07;;;;;;;;;;5096161;28;20126;-56
2022/06/13 05:32:03;;;;;;;15.05;6.72;;;;;;;;;;5092328;28;20020;-57
2022/06/13 05:34:32;;;;;;;13.95;7.38;;;;;;;;;;5089845;28;20060;-56
2022/06/13 05:36:58;;;;;;;16.38;7.43;;;;;;;;;;5090324;28;20500;-57
2022/06/13 05:39:24;;;;;;;17.40;8.07;;;;;;;;;;5084981;28;20085;-56
2022/06/13 05:41:50;;;;;;;16.80;8.18;;;;;;;;;;5092244;28;20074;-56
2022/06/13 05:44:16;;;;;;;15.90;8.85;;;;;;;;;;5092799;28;20024;-55
2022/06/13 05:46:42;;;;;;;21.65;9.30;;;;;;;;;;5088712;28;20122;-56
2022/06/13 05:49:11;;;;;;;18.45;9.52;;;;;;;;;;5089411;28;20588;-56
2022/06/13 05:51:37;;;;;;;15.60;9.00;;;;;;;;;;5087146;28;20028;-56
2022/06/13 05:54:03;;;;;;;23.95;9.70;;;;;;;;;;5090828;28;20111;-57
2022/06/13 05:56:31;;;;;;;21.20;9.32;;;;;;;;;;5085482;28;20476;-56
2022/06/13 05:58:57;;;;;;;22.02;9.65;;;;;;;;;;5089229;28;20098;-57
2022/06/13 06:01:24;;;;;;;21.75;9.85;;;;;;;;;;5084239;28;20138;-55
2022/06/13 06:03:50;;;;;;;16.95;9.15;;;;;;;;;;5089867;28;20016;-55
2022/06/13 06:06:27;;;;;;;21.17;9.95;;;;;;;;;;5082970;28;20015;-56
2022/06/13 06:08:54;;;;;;;23.00;9.98;;;;;;;;;;5085707;28;20062;-55
2022/06/13 06:11:21;;;;;;;21.02;10.10;;;;;;;;;;5077136;28;20056;-56
2022/06/13 06:13:48;;;;;;;23.42;10.25;;;;;;;;;;5089929;28;20028;-57
2022/06/13 06:16:16;;;;;;;23.17;10.88;;;;;;;;;;5093148;28;20483;-56
2022/06/13 06:18:42;;;;;;;22.63;10.40;;;;;;;;;;5088820;28;20028;-55
2022/06/13 06:21:09;;;;;;;20.55;10.02;;;;;;;;;;5087300;28;20532;-56
2022/06/13 06:23:36;;;;;;;21.50;11.10;;;;;;;;;;5089225;28;20048;-55
2022/06/13 06:26:03;;;;;;;18.80;10.30;;;;;;;;;;5092677;28;20082;-56
2022/06/13 06:28:30;;;;;;;22.98;11.38;;;;;;;;;;5083646;28;20517;-57
2022/06/13 06:30:57;;;;;;;23.00;11.73;;;;;;;;;;5078765;28;20104;-56
2022/06/13 06:33:23;;;;;;;26.10;11.68;;;;;;;;;;5089199;28;20019;-57
2022/06/13 06:35:51;;;;;;;25.02;12.25;;;;;;;;;;5082280;28;20024;-57
2022/06/13 06:38:17;;;;;;;24.60;12.13;;;;;;;;;;5092857;28;20493;-57
2022/06/13 06:40:43;;;;;;;28.63;12.18;;;;;;;;;;5089153;28;20032;-57
2022/06/13 06:43:10;;;;;;;26.13;12.10;;;;;;;;;;5098464;27;20026;-57
2022/06/13 06:45:36;;;;;;;25.17;11.85;;;;;;;;;;5094694;28;20019;-56
2022/06/13 06:48:02;;;;;;;31.80;12.40;;;;;;;;;;5083036;28;20519;-57
2022/06/13 06:50:30;;;;;;;25.30;12.82;;;;;;;;;;5083652;28;20100;-57
2022/06/13 06:52:56;;;;;;;29.35;13.45;;;;;;;;;;5084756;28;20092;-58
2022/06/13 07:00:54;;;;;;;33.20;14.38;;;;;;;;;;5084004;28;20510;-58
2022/06/13 07:03:20;;;;;;;34.67;15.25;;;;;;;;;;5083494;28;20568;-57
2022/06/13 07:05:46;;;;;;;33.42;15.15;;;;;;;;;;5077972;28;20020;-59
2022/06/13 07:08:12;;;;;;;29.40;15.07;;;;;;;;;;5083196;28;20042;-58
2022/06/13 07:10:38;;;;;;;32.88;15.55;;;;;;;;;;5078386;28;20508;-57
2022/06/13 07:13:04;;;;;;;36.38;16.23;;;;;;;;;;5073199;28;20028;-57
2022/06/13 07:15:30;;;;;;;34.45;16.00;;;;;;;;;;5082259;28;20369;-58
2022/06/13 07:17:56;;;;;;;33.80;15.60;;;;;;;;;;5085947;28;20085;-57
2022/06/13 07:20:22;;;;;;;28.05;15.00;;;;;;;;;;5079066;28;20024;-57
2022/06/13 07:22:50;;;;;;;26.55;13.82;;;;;;;;;;5074522;28;20396;-56
2022/06/13 07:25:18;;;;;;;27.88;15.65;;;;;;;;;;5079538;28;20020;-57
2022/06/13 07:27:44;;;;;;;31.27;15.93;;;;;;;;;;5082880;28;20081;-57
2022/06/13 07:30:12;;;;;;;35.97;16.80;;;;;;;;;;5081634;28;20693;-57
2022/06/13 07:32:38;;;;;;;30.45;14.48;;;;;;;;;;5074434;28;20468;-57
2022/06/13 07:35:04;;;;;;;29.85;15.80;;;;;;;;;;5078338;28;20136;-57
2022/06/13 07:40:15;;;;;;;26.00;14.80;;;;;;;;;;5078636;28;20509;-58
2022/06/13 07:42:43;;;;;;;26.38;14.70;;;;;;;;;;5083250;28;20024;-57
2022/06/13 07:45:15;;;;;;;24.63;13.98;;;;;;;;;;5085270;28;20035;-57
2022/06/13 07:47:41;;;;;;;22.83;13.25;;;;;;;;;;5081451;28;20028;-56
2022/06/13 07:50:07;;;;;;;30.67;14.25;;;;;;;;;;5082741;28;20032;-57
2022/06/13 07:52:33;;;;;;;25.83;13.00;;;;;;;;;;5092781;28;20024;-59
2022/06/13 07:54:59;;;;;;;28.85;12.65;;;;;;;;;;5083558;28;20031;-57
2022/06/13 07:57:25;;;;;;;24.20;12.02;;;;;;;;;;5082765;28;20377;-57
2022/06/13 07:59:51;;;;;;;27.80;12.18;;;;;;;;;;5078752;28;20365;-56
2022/06/13 08:02:18;;;;;;;27.50;13.10;;;;;;;;;;5085286;28;20035;-57
2022/06/13 08:04:44;;;;;;;22.33;12.70;;;;;;;;;;5090069;28;20050;-56
2022/06/13 08:07:10;;;;;;;27.33;12.98;;;;;;;;;;5091596;28;20031;-57
2022/06/13 08:09:37;;;;;;;20.90;10.40;;;;;;;;;;5089820;28;20507;-57
2022/06/13 08:12:03;;;;;;;21.20;12.05;;;;;;;;;;5082490;28;20687;-57
2022/06/13 08:14:29;;;;;;;24.02;11.40;;;;;;;;;;5082580;28;20101;-58
2022/06/13 08:16:55;;;;;;;24.67;10.63;;;;;;;;;;5088529;28;20028;-59
2022/06/13 08:19:21;;;;;;;23.90;10.23;;;;;;;;;;5084965;28;20034;-58
2022/06/13 08:21:47;;;;;;;20.27;9.55;;;;;;;;;;5081395;28;20111;-58
2022/06/13 08:24:13;;;;;;;23.27;9.52;;;;;;;;;;5077911;28;20103;-57
2022/06/13 08:26:39;;;;;;;20.70;9.65;;;;;;;;;;5088118;28;20032;-58
2022/06/13 08:29:05;;;;;;;19.08;10.27;;;;;;;;;;5083701;28;20035;-57
2022/06/13 08:31:32;;;;;;;22.30;9.10;;;;;;;;;;5083159;28;20077;-59
2022/06/13 08:33:58;;;;;;;17.40;7.72;;;;;;;;;;5083432;28;20028;-58
2022/06/13 08:36:24;;;;;;;23.10;8.25;;;;;;;;;;5079167;28;20318;-57
2022/06/13 08:38:50;;;;;;;19.70;8.55;;;;;;;;;;5090781;28;20501;-59
2022/06/13 08:41:40;;;;;;;20.70;8.85;;;;;;;;;;5087578;28;20095;-57
2022/06/13 08:44:24;;;;;;;18.23;8.13;;;;;;;;;;5090713;28;20039;-57
2022/06/13 08:47:04;;;;;;;17.05;8.05;;;;;;;;;;5084942;28;20149;-57
2022/06/13 08:49:45;;;;;;;16.17;6.47;;;;;;;;;;5081000;28;20089;-58
2022/06/13 08:52:32;;;;;;;21.67;6.57;;;;;;;;;;5084042;28;20456;-57
2022/06/13 08:55:07;;;;;;;19.50;6.93;;;;;;;;;;5090876;28;20464;-57
2022/06/13 08:57:35;;;;;;;18.15;6.78;;;;;;;;;;5085564;28;20028;-59
2022/06/13 09:00:08;;;;;;;18.75;7.25;;;;;;;;;;5085556;28;20039;-57
2022/06/13 09:02:43;;;;;;;19.02;8.07;;;;;;;;;;5082234;28;20038;-58
2022/06/13 09:05:12;;;;;;;21.35;7.68;;;;;;;;;;5091485;28;20585;-59
2022/06/13 09:07:56;;;;;;;18.17;7.47;;;;;;;;;;5086401;28;20468;-58
2022/06/13 09:10:38;;;;;;;16.83;6.85;;;;;;;;;;5081311;28;20020;-57
2022/06/13 09:13:10;;;;;;;18.17;7.10;;;;;;;;;;5089767;28;20074;-57
2022/06/13 09:15:41;;;;;;;21.85;8.07;;;;;;;;;;5083625;28;20032;-57
2022/06/13 09:18:07;;;;;;;20.25;9.85;;;;;;;;;;5082537;28;20924;-56
2022/06/13 09:20:33;;;;;;;18.05;6.10;;;;;;;;;;5083142;28;20093;-59
2022/06/13 09:23:02;;;;;;;18.45;5.72;;;;;;;;;;5082424;28;20032;-58
2022/06/13 09:25:42;;;;;;;19.10;5.85;;;;;;;;;;5081835;27;20032;-58
2022/06/13 09:28:08;;;;;;;15.75;5.07;;;;;;;;;;5076948;28;20518;-58
2022/06/13 09:30:35;;;;;;;12.65;4.93;;;;;;;;;;5077228;28;20053;-56
2022/06/13 09:33:06;;;;;;;14.68;5.07;;;;;;;;;;5098609;27;20111;-57
2022/06/13 09:35:46;;;;;;;17.63;5.47;;;18.90;99.90;;;;;;5084427;28;20028;-58
2022/06/13 09:38:21;;;;;;;14.80;4.82;;;19.50;99.90;;;;;;5088734;28;20020;-58
2022/06/13 09:40:58;;;;;;;13.55;5.00;;;19.40;99.90;;;;;;5087635;28;20044;-57
2022/06/13 09:43:42;;;;;;;16.48;5.47;;;19.40;99.90;;;;;;5086143;28;20028;-58
2022/06/13 09:46:22;;;;;;;15.50;5.93;;;19.30;99.90;;;;;;5079779;28;20027;-58
2022/06/13 09:48:51;;;;;;;14.73;5.45;;;19.10;99.90;;;;;;5081286;28;20024;-58
2022/06/13 09:51:43;;;;;;;15.88;5.60;;;18.90;99.90;;;;;;5074716;28;20029;-57
2022/06/13 09:54:22;;;;;;;16.13;5.43;;;19.10;99.90;;;;;;5081496;28;20028;-58
2022/06/13 09:56:57;;;;;;;12.40;5.00;;;19.40;99.90;;;;;;5089854;28;20020;-58
2022/06/13 09:59:40;;;;;;;13.07;4.82;;;19.60;99.90;;;;;;5088033;28;20030;-57
2022/06/13 10:02:13;;;;;;;10.35;3.78;;;19.50;99.90;;;;;;5076098;28;20024;-57
2022/06/13 10:05:00;;;;;;;13.70;3.53;;;19.50;99.90;;;;;;5082163;28;20032;-57
2022/06/13 10:07:46;;;;;;;11.10;3.17;;;19.50;99.90;;;;;;5083246;28;20136;-58
2022/06/13 10:10:30;;;;;;;11.85;3.60;;;19.20;99.90;;;;;;5084176;28;20533;-57
2022/06/13 10:13:28;;;;;;;9.02;3.10;;;19.30;99.90;;;;;;5089984;28;20073;-58
2022/06/13 10:16:16;;;;;;;8.63;3.17;;;19.30;99.90;;;;;;5070752;28;20115;-58
2022/06/13 10:19:00;;;;;;;8.00;2.58;;;19.30;99.90;;;;;;5087437;28;20048;-57
2022/06/13 10:21:31;;;;;;;10.07;2.78;;;19.70;99.90;;;;;;5080502;28;20487;-57
2022/06/13 10:24:23;;;;;;;5.82;2.28;;;19.60;99.90;;;;;;5079795;28;20039;-59
2022/06/13 10:27:07;;;;;;;7.35;2.50;;;19.80;99.90;;;;;;5078820;28;20107;-59
2022/06/13 10:29:42;;;;;;;10.73;4.72;;;20.10;99.90;;;;;;5085968;28;20028;-57
2022/06/13 10:32:26;;;;;;;6.80;2.58;;;;;;;;;;5087576;28;20608;-59
2022/06/13 10:35:02;;;;;;;7.28;2.20;;;;;;;;;;5082745;28;20550;-59
2022/06/13 10:37:27;;;;;;;9.63;2.08;;;;;;;;;;5081985;28;20502;-58
2022/06/13 10:39:58;;;;;;;7.32;2.15;;;;;;;;;;5077333;28;20032;-57
2022/06/13 10:42:25;;;;;;;10.48;2.35;;;;;;;;;;5086188;28;20028;-57
2022/06/13 10:44:52;;;;;;;9.45;2.28;;;;;;;;;;5081216;28;20082;-58
2022/06/13 10:47:38;;;;;;;5.97;2.20;;;;;;;;;;5083525;28;20031;-57
2022/06/13 10:50:16;;;;;;;8.15;2.20;;;;;;;;;;5072550;28;20048;-58
2022/06/13 10:52:45;;;;;;;4.93;1.80;;;;;;;;;;5081225;28;20496;-57
2022/06/13 10:55:14;;;;;;;5.25;1.90;;;;;;;;;;5085169;28;20039;-58
2022/06/13 10:57:42;;;;;;;5.15;1.98;;;;;;;;;;5081930;28;20024;-57
2022/06/13 11:00:08;;;;;;;6.63;2.10;;;;;;;;;;5090471;28;20123;-57
2022/06/13 11:02:34;;;;;;;8.82;2.10;;;;;;;;;;5086162;28;20688;-58
2022/06/13 11:05:06;;;;;;;7.20;2.05;;;;;;;;;;5076472;28;20425;-59
2022/06/13 11:07:33;;;;;;;6.50;2.20;;;;;;;;;;5077444;28;20523;-59
2022/06/13 11:09:59;;;;;;;5.95;2.17;;;;;;;;;;5081634;28;20516;-59
2022/06/13 11:12:27;;;;;;;5.30;2.03;;;;;;;;;;5079027;28;20484;-59
2022/06/13 11:23:17;;;;;;;9.05;1.75;;;;;;;;;;5082111;28;20085;-57
2022/06/13 11:25:43;;;;;;;7.50;1.70;;;;;;;;;;5083278;28;20020;-57
2022/06/13 11:28:14;;;;;;;6.38;1.60;;;;;;;;;;5083095;28;20012;-57
2022/06/13 11:30:43;;;;;;;5.32;1.15;;;;;;;;;;5085517;28;20115;-57
2022/06/13 11:33:15;;;;;;;3.60;1.00;;;;;;;;;;5086641;28;20498;-58
2022/06/13 11:35:43;;;;;;;7.20;1.27;;;;;;;;;;5080355;28;20043;-58
2022/06/13 11:38:14;;;;;;;2.30;1.00;;;;;;;;;;5081058;28;20016;-58
2022/06/13 11:40:40;;;;;;;3.22;0.90;;;;;;;;;;5083887;28;20131;-58
2022/06/13 11:43:17;;;;;;;3.88;1.20;;;;;;;;;;5080917;28;20499;-57
2022/06/13 11:45:43;;;;;;;4.10;0.80;;;;;;;;;;5077252;28;20071;-58
2022/06/13 11:48:12;;;;;;;5.45;1.13;;;;;;;;;;5077712;28;20392;-59
2022/06/13 11:50:38;;;;;;;4.22;1.00;;;;;;;;;;5083283;28;20035;-58
2022/06/13 11:55:51;;;;;;;3.13;0.88;;;;;;;;;;5090564;28;20300;-57
2022/06/13 11:58:19;;;;;;;2.30;1.02;;;;;;;;;;5084769;28;20517;-58
2022/06/13 12:00:53;;;;;;;4.85;0.80;;;;;;;;;;5083588;28;20039;-58
2022/06/13 12:03:19;;;;;;;;;;;;;;;;;;5084073;28;20036;-57
2022/06/13 12:05:48;;;;;;;2.30;0.90;;;;;;;;;;5078683;28;19997;-58
2022/06/13 12:08:25;;;;;;;3.80;0.85;;;;;;;;;;5081951;28;20031;-58
2022/06/13 12:10:57;;;;;;;3.80;0.95;;;;;;;;;;5075851;28;20038;-59
2022/06/13 12:13:23;;;;;;;2.80;0.88;;;;;;;;;;5082029;28;20471;-58
2022/06/13 12:15:55;;;;;;;4.03;1.08;;;;;;;;;;5081162;28;20031;-59
2022/06/13 12:18:33;;;;;;;4.65;1.00;;;;;;;;;;5080764;28;20388;-58
2022/06/13 12:20:59;;;;;;;2.38;0.82;;;;;;;;;;5079552;28;20032;-58
2022/06/13 12:23:29;;;;;;;6.90;1.10;;;;;;;;;;5081646;28;20399;-57
2022/06/13 12:25:58;;;;;;;6.22;1.10;;;;;;;;;;5081784;28;20032;-57
2022/06/13 12:28:30;;;;;;;7.57;3.65;;;;;;;;;;5085452;28;20024;-57
2022/06/13 12:30:56;;;;;;;9.65;1.23;;;;;;;;;;5089302;28;20032;-59
2022/06/13 12:33:41;;;;;;;6.38;1.20;;;;;;;;;;5084484;28;20073;-59
2022/06/13 12:36:21;;;;;;;2.55;0.90;;;;;;;;;;5088545;28;20031;-58
2022/06/13 12:39:00;;;;;;;4.78;1.05;;;;;;;;;;5079842;28;20449;-59
2022/06/13 12:41:30;;;;;;;2.92;1.15;;;;;;;;;;5087811;28;20044;-58
2022/06/13 12:43:58;;;;;;;5.13;0.98;;;;;;;;;;5086667;28;20028;-58
2022/06/13 12:46:30;;;;;;;3.83;1.00;;;;;;;;;;5086319;28;20039;-58
2022/06/13 12:49:15;;;;;;;4.32;1.15;;;;;;;;;;5091367;28;20020;-57
2022/06/13 12:51:52;;;;;;;4.82;1.17;;;;;;;;;;5088238;28;20509;-58
2022/06/13 12:54:33;;;;;;;7.07;1.20;;;;;;;;;;5082146;28;20107;-57
2022/06/13 12:57:19;;;;;;;8.48;1.30;;;;;;;;;;5085447;28;20028;-59
2022/06/13 12:59:46;;;;;;;3.97;1.30;;;;;;;;;;5088524;28;20040;-59
2022/06/13 13:02:15;;;;;;;4.93;0.93;;;;;;;;;;5083202;28;20116;-58
2022/06/13 13:04:56;;;;;;;6.57;1.33;;;;;;;;;;5089700;28;20472;-57
2022/06/13 13:07:28;;;;;;;8.98;1.40;;;;;;;;;;5086273;28;20459;-58
2022/06/13 13:10:03;;;;;;;3.55;0.95;;;;;;;;;;5089284;28;20054;-58
2022/06/13 13:12:32;;;;;;;6.50;1.33;;;;;;;;;;5098640;28;20050;-57
2022/06/13 13:15:02;;;;;;;4.68;1.10;;;;;;;;;;5084956;28;20085;-59
2022/06/13 13:17:38;;;;;;;2.33;0.80;;;;;;;;;;5088170;28;20077;-58
2022/06/13 13:20:18;;;;;;;4.53;1.10;;;;;;;;;;5086521;28;20055;-59
2022/06/13 13:22:59;;;;;;;4.72;1.15;;;;;;;;;;5084995;28;20365;-58
2022/06/13 13:25:40;;;;;;;6.90;0.98;;;;;;;;;;5086118;28;20032;-58
2022/06/13 13:28:24;;;;;;;4.18;1.15;;;;;;;;;;5078407;28;20051;-59
2022/06/13 13:31:04;;;;;;;4.05;1.08;;;;;;;;;;5081788;28;20448;-58
2022/06/13 13:33:39;;;;;;;4.07;1.00;;;;;;;;;;5080395;28;20025;-58
2022/06/13 13:36:22;;;;;;;4.47;0.90;;;;;;;;;;5080189;28;20096;-58
2022/06/13 13:38:52;;;;;;;1.50;0.77;;;;;;;;;;5092598;28;20032;-58
2022/06/13 13:41:24;;;;;;;3.90;1.13;;;;;;;;;;5082670;28;20043;-58
2022/06/13 13:43:57;;;;;;;4.22;1.60;;;;;;;;;;5089612;28;20470;-58
2022/06/13 13:46:29;;;;;;;4.50;1.20;;;;;;;;;;5082767;28;20435;-58
2022/06/13 13:49:02;;;;;;;3.10;0.98;;;;;;;;;;5077068;28;20028;-57
2022/06/13 13:51:28;;;;;;;2.85;0.90;;;;;;;;;;5083373;28;20059;-58
2022/06/13 13:54:03;;;;;;;3.35;1.00;;;;;;;;;;5089121;28;20502;-59
2022/06/13 13:56:32;;;;;;;2.90;1.00;;;;;;;;;;5091780;28;20123;-58
2022/06/13 13:58:59;;;;;;;4.18;1.13;;;;;;;;;;5080943;28;20027;-58
2022/06/13 14:01:36;;;;;;;3.55;1.00;;;;;;;;;;5086261;28;20039;-58
2022/06/13 14:04:17;;;;;;;5.72;1.25;;;;;;;;;;5085613;28;20047;-58
2022/06/13 14:06:50;;;;;;;5.32;1.27;;;;;;;;;;5088941;28;20594;-58
2022/06/13 14:09:20;;;;;;;4.35;1.38;;;;;;;;;;5082754;28;20501;-58
2022/06/13 14:12:18;;;;;;;6.15;1.20;;;;;;;;;;5087253;28;20056;-58
2022/06/13 14:14:50;;;;;;;4.65;1.23;;;;;;;;;;5082521;28;20503;-58
2022/06/13 14:17:30;;;;;;;5.68;1.17;;;;;;;;;;5083334;28;20498;-59
2022/06/13 14:19:58;;;;;;;4.40;1.30;;;;;;;;;;5084271;28;20038;-59
2022/06/13 14:22:24;;;;;;;3.70;1.20;;;;;;;;;;5086637;28;20024;-58
2022/06/13 14:25:02;;;;;;;4.93;1.25;;;;;;;;;;5088602;28;20020;-56
2022/06/13 14:27:28;;;;;;;5.75;1.20;;;;;;;;;;5081947;28;20075;-59
2022/06/13 14:31:03;;;;;;;5.22;1.20;;;;;;;;;;5086678;28;20024;-59
2022/06/13 14:32:40;;;;;;;4.93;1.35;;;;;;;;;;5084669;28;20045;-59
2022/06/13 14:35:16;;;;;;;3.53;1.05;;;;;;;;;;5084337;28;20036;-58
2022/06/13 14:37:46;;;;;;;6.18;1.10;;;;;;;;;;5084733;28;20036;-57
2022/06/13 14:40:13;;;;;;;3.78;1.30;;;;;;;;;;5082479;28;20045;-57
2022/06/13 14:42:58;;;;;;;4.93;1.40;;;;;;;;;;5087174;28;20038;-58